createdAt,value
2018-01-13T00:00:06.018Z,10.93
2018-01-13T00:00:46.390Z,10.83
2018-01-13T00:01:26.764Z,10.86
2018-01-13T00:02:07.114Z,10.83
2018-01-13T00:02:47.544Z,10.86
2018-01-13T00:03:27.930Z,10.73
2018-01-13T00:04:08.318Z,10.69
2018-01-13T00:04:48.698Z,10.57
2018-01-13T00:05:29.090Z,10.54
2018-01-13T00:06:09.500Z,10.46
2018-01-13T00:06:49.903Z,10.35
2018-01-13T00:07:30.283Z,10.34
2018-01-13T00:08:10.631Z,10.26
2018-01-13T00:08:51.032Z,10.28
2018-01-13T00:09:31.459Z,10.22
2018-01-13T00:10:11.871Z,10.29
2018-01-13T00:10:52.192Z,10.25
2018-01-13T00:11:32.622Z,10.26
2018-01-13T00:12:12.982Z,10.29
2018-01-13T00:12:53.335Z,10.28
2018-01-13T00:13:33.771Z,10.2
2018-01-13T00:14:14.187Z,10.09
2018-01-13T00:14:54.574Z,9.95
2018-01-13T00:15:34.911Z,9.93
2018-01-13T00:16:15.329Z,9.83
2018-01-13T00:16:55.749Z,9.65
2018-01-13T00:17:36.162Z,9.71
2018-01-13T00:18:16.533Z,9.68
2018-01-13T00:18:56.933Z,9.77
2018-01-13T00:19:37.349Z,9.86
2018-01-13T00:21:54.342Z,10.04
2018-01-13T00:22:46.724Z,9.98
2018-01-13T00:23:38.801Z,10.04
2018-01-13T00:24:31.081Z,9.98
2018-01-13T00:25:23.428Z,10.04
2018-01-13T00:26:15.619Z,10.01
2018-01-13T00:27:09.100Z,9.98
2018-01-13T00:28:01.266Z,10.02
2018-01-13T00:28:54.784Z,10.11
2018-01-13T00:29:46.787Z,10.02
2018-01-13T00:30:39.288Z,9.92
2018-01-13T00:31:31.556Z,9.93
2018-01-13T00:32:23.983Z,9.92
2018-01-13T00:33:16.263Z,9.98
2018-01-13T00:34:08.194Z,9.93
2018-01-13T00:35:00.108Z,9.91
2018-01-13T00:35:51.831Z,9.95
2018-01-13T00:36:44.031Z,10.01
2018-01-13T00:37:36.459Z,10.07
2018-01-13T00:38:29.238Z,10.01
2018-01-13T00:39:21.739Z,10.04
2018-01-13T00:40:14.079Z,10.04
2018-01-13T00:41:06.478Z,10.11
2018-01-13T00:41:59.226Z,10.04
2018-01-13T00:42:51.984Z,10.01
2018-01-13T00:43:44.167Z,10.02
2018-01-13T00:44:36.832Z,10.13
2018-01-13T00:45:29.057Z,10.2
2018-01-13T00:46:21.764Z,10.17
2018-01-13T00:47:13.747Z,10.25
2018-01-13T00:48:06.322Z,10.22
2018-01-13T00:48:58.828Z,10.13
2018-01-13T00:49:51.191Z,10.09
2018-01-13T00:50:43.544Z,9.95
2018-01-13T00:51:35.228Z,9.93
2018-01-13T00:52:27.591Z,9.81
2018-01-13T00:53:19.815Z,9.77
2018-01-13T00:54:12.245Z,9.71
2018-01-13T00:55:04.173Z,9.88
2018-01-13T00:55:56.876Z,9.95
2018-01-13T00:56:49.285Z,9.95
2018-01-13T00:57:41.743Z,10.04
2018-01-13T00:58:34.142Z,10.02
2018-01-13T00:59:26.673Z,9.95
2018-01-13T01:00:19.066Z,9.78
2018-01-13T01:01:12.348Z,9.74
2018-01-13T01:02:04.613Z,9.59
2018-01-13T01:02:57.529Z,9.58
2018-01-13T01:03:49.549Z,9.55
2018-01-13T01:04:41.750Z,9.6
2018-01-13T01:05:34.367Z,9.59
2018-01-13T01:06:26.569Z,9.6
2018-01-13T01:07:18.664Z,9.62
2018-01-13T01:08:11.044Z,9.6
2018-01-13T01:09:03.003Z,9.5
2018-01-13T01:09:54.385Z,9.45
2018-01-13T01:10:48.085Z,9.38
2018-01-13T01:11:40.520Z,9.32
2018-01-13T01:13:40.003Z,9.52
2018-01-13T01:14:32.368Z,9.68
2018-01-13T01:15:25.101Z,9.68
2018-01-13T01:16:17.570Z,9.67
2018-01-13T01:17:09.710Z,9.74
2018-01-13T01:18:01.944Z,9.8
2018-01-13T01:18:56.548Z,9.83
2018-01-13T01:19:49.605Z,9.89
2018-01-13T01:20:41.896Z,9.77
2018-01-13T01:21:33.928Z,9.8
2018-01-13T01:22:26.896Z,9.83
2018-01-13T01:23:19.470Z,9.78
2018-01-13T01:24:12.066Z,9.74
2018-01-13T01:25:04.523Z,9.65
2018-01-13T01:25:58.457Z,9.71
2018-01-13T01:26:50.665Z,9.63
2018-01-13T01:27:42.991Z,9.73
2018-01-13T01:28:34.568Z,9.7
2018-01-13T01:29:26.646Z,9.67
2018-01-13T01:30:09.755Z,9.7
2018-01-13T01:30:50.174Z,9.62
2018-01-13T01:31:30.623Z,9.59
2018-01-13T01:32:11.000Z,9.6
2018-01-13T01:32:51.364Z,9.63
2018-01-13T01:33:31.757Z,9.5
2018-01-13T01:34:12.119Z,9.49
2018-01-13T01:34:52.561Z,9.44
2018-01-13T01:35:32.896Z,9.34
2018-01-13T01:36:13.341Z,9.27
2018-01-13T01:36:53.726Z,9.26
2018-01-13T01:37:34.116Z,9.32
2018-01-13T01:38:14.558Z,9.16
2018-01-13T01:38:54.900Z,9.15
2018-01-13T01:39:35.346Z,9.2
2018-01-13T01:40:15.701Z,9.27
2018-01-13T01:40:56.137Z,9.24
2018-01-13T01:41:36.548Z,9.16
2018-01-13T01:42:17.094Z,9.13
2018-01-13T01:42:57.338Z,9.19
2018-01-13T01:43:37.684Z,9.19
2018-01-13T01:44:18.140Z,9.04
2018-01-13T01:44:58.519Z,9.1
2018-01-13T01:45:38.955Z,8.94
2018-01-13T01:46:19.354Z,8.94
2018-01-13T01:46:59.756Z,9.06
2018-01-13T01:47:40.112Z,9.06
2018-01-13T01:48:20.501Z,9.04
2018-01-13T01:49:00.872Z,9.12
2018-01-13T01:49:41.320Z,9.1
2018-01-13T01:50:21.716Z,9.15
2018-01-13T01:51:02.084Z,9.04
2018-01-13T01:51:42.473Z,8.96
2018-01-13T01:52:22.881Z,8.96
2018-01-13T01:53:03.236Z,9
2018-01-13T01:53:43.702Z,8.96
2018-01-13T01:54:24.071Z,8.94
2018-01-13T01:55:04.490Z,8.89
2018-01-13T01:55:44.898Z,8.88
2018-01-13T01:56:25.227Z,8.91
2018-01-13T01:57:05.709Z,8.86
2018-01-13T01:57:46.107Z,8.86
2018-01-13T01:58:26.433Z,8.93
2018-01-13T01:59:06.882Z,8.91
2018-01-13T01:59:47.230Z,8.94
2018-01-13T02:00:27.626Z,8.89
2018-01-13T02:01:08.052Z,8.89
2018-01-13T02:01:48.446Z,8.98
2018-01-13T02:02:28.887Z,8.88
2018-01-13T02:03:09.362Z,8.98
2018-01-13T02:03:49.772Z,8.94
2018-01-13T02:04:30.177Z,9.08
2018-01-13T02:05:10.503Z,9.03
2018-01-13T02:05:50.898Z,9.06
2018-01-13T02:06:31.307Z,9.1
2018-01-13T02:07:11.683Z,9.13
2018-01-13T02:07:52.089Z,9.01
2018-01-13T02:08:32.463Z,9.01
2018-01-13T02:09:12.878Z,8.89
2018-01-13T02:09:53.282Z,8.94
2018-01-13T02:10:33.647Z,9.06
2018-01-13T02:11:14.078Z,8.93
2018-01-13T02:11:54.465Z,8.98
2018-01-13T02:12:34.886Z,8.96
2018-01-13T02:13:15.283Z,8.89
2018-01-13T02:13:55.644Z,8.96
2018-01-13T02:14:36.028Z,9.03
2018-01-13T02:15:16.474Z,9.13
2018-01-13T02:15:56.845Z,9.08
2018-01-13T02:16:37.224Z,9.12
2018-01-13T02:17:17.571Z,9.04
2018-01-13T02:17:58.006Z,9.1
2018-01-13T02:18:38.465Z,8.94
2018-01-13T02:19:18.843Z,9.06
2018-01-13T02:19:59.212Z,9.12
2018-01-13T02:20:39.613Z,9.19
2018-01-13T02:21:20.015Z,9.3
2018-01-13T02:22:00.409Z,9.35
2018-01-13T02:22:40.857Z,9.49
2018-01-13T02:23:21.199Z,9.49
2018-01-13T02:24:01.690Z,9.48
2018-01-13T02:24:42.041Z,9.41
2018-01-13T02:25:22.416Z,9.41
2018-01-13T02:26:02.765Z,9.34
2018-01-13T02:26:43.253Z,9.27
2018-01-13T02:27:23.698Z,9.32
2018-01-13T02:28:04.041Z,9.4
2018-01-13T02:28:44.460Z,9.4
2018-01-13T02:29:24.842Z,9.45
2018-01-13T02:30:05.224Z,9.52
2018-01-13T02:30:45.632Z,9.5
2018-01-13T02:31:26.065Z,9.6
2018-01-13T02:32:06.439Z,9.59
2018-01-13T02:32:46.857Z,9.67
2018-01-13T02:33:27.258Z,9.65
2018-01-13T02:34:07.647Z,9.71
2018-01-13T02:34:48.050Z,9.77
2018-01-13T02:35:28.469Z,9.77
2018-01-13T02:36:08.814Z,9.8
2018-01-13T02:36:49.188Z,9.67
2018-01-13T02:37:29.619Z,9.62
2018-01-13T02:38:10.028Z,9.52
2018-01-13T02:38:50.409Z,9.63
2018-01-13T02:39:30.844Z,9.59
2018-01-13T02:40:11.212Z,9.62
2018-01-13T02:40:51.695Z,9.63
2018-01-13T02:41:32.042Z,9.59
2018-01-13T02:42:12.494Z,9.58
2018-01-13T02:42:52.833Z,9.52
2018-01-13T02:43:33.217Z,9.45
2018-01-13T02:44:13.673Z,9.34
2018-01-13T02:44:54.089Z,9.37
2018-01-13T02:45:34.521Z,9.34
2018-01-13T02:46:14.916Z,9.24
2018-01-13T02:46:55.341Z,9.3
2018-01-13T02:47:35.714Z,9.27
2018-01-13T02:48:16.143Z,9.22
2018-01-13T02:48:56.507Z,9.26
2018-01-13T02:49:36.907Z,9.2
2018-01-13T02:50:17.370Z,9.16
2018-01-13T02:50:57.702Z,9.13
2018-01-13T02:51:38.108Z,9.23
2018-01-13T02:52:18.510Z,9.17
2018-01-13T02:52:58.881Z,9.06
2018-01-13T02:53:39.298Z,9.24
2018-01-13T02:54:19.757Z,9.15
2018-01-13T02:55:00.132Z,9.04
2018-01-13T02:55:40.475Z,9.08
2018-01-13T02:56:20.890Z,9.06
2018-01-13T02:57:01.287Z,9.04
2018-01-13T02:57:41.745Z,9.13
2018-01-13T02:58:22.095Z,9.12
2018-01-13T02:59:02.480Z,9.04
2018-01-13T02:59:42.913Z,9.04
2018-01-13T03:00:23.309Z,9.1
2018-01-13T03:01:03.705Z,9.2
2018-01-13T03:01:44.070Z,9.16
2018-01-13T03:02:24.474Z,9.15
2018-01-13T03:03:04.894Z,9.06
2018-01-13T03:03:45.272Z,9.08
2018-01-13T03:04:25.706Z,9.12
2018-01-13T03:05:06.075Z,9.13
2018-01-13T03:05:46.472Z,9.13
2018-01-13T03:06:26.812Z,9.08
2018-01-13T03:07:07.220Z,9.08
2018-01-13T03:07:47.590Z,9.01
2018-01-13T03:08:27.970Z,9.04
2018-01-13T03:09:08.419Z,9.08
2018-01-13T03:09:48.799Z,8.93
2018-01-13T03:10:29.216Z,8.91
2018-01-13T03:11:09.621Z,8.93
2018-01-13T03:11:50.037Z,8.94
2018-01-13T03:12:30.463Z,8.97
2018-01-13T03:13:10.783Z,8.94
2018-01-13T03:13:51.209Z,8.86
2018-01-13T03:14:31.642Z,8.97
2018-01-13T03:15:12.004Z,8.94
2018-01-13T03:15:52.436Z,8.8
2018-01-13T03:16:32.824Z,8.8
2018-01-13T03:17:13.176Z,8.86
2018-01-13T03:17:53.576Z,8.79
2018-01-13T03:18:34.016Z,8.79
2018-01-13T03:19:14.376Z,8.78
2018-01-13T03:19:54.771Z,8.78
2018-01-13T03:20:35.198Z,8.88
2018-01-13T03:21:15.619Z,8.89
2018-01-13T03:21:55.974Z,8.85
2018-01-13T03:22:36.424Z,8.78
2018-01-13T03:23:16.771Z,8.8
2018-01-13T03:23:57.242Z,8.82
2018-01-13T03:24:37.614Z,8.88
2018-01-13T03:25:18.023Z,8.79
2018-01-13T03:25:58.360Z,8.73
2018-01-13T03:26:38.826Z,8.73
2018-01-13T03:27:19.174Z,8.73
2018-01-13T03:27:59.608Z,8.83
2018-01-13T03:28:39.981Z,8.78
2018-01-13T03:29:20.422Z,8.78
2018-01-13T03:30:00.834Z,8.89
2018-01-13T03:30:41.183Z,8.89
2018-01-13T03:31:21.627Z,8.97
2018-01-13T03:32:01.988Z,9.1
2018-01-13T03:32:42.371Z,9.01
2018-01-13T03:33:22.766Z,9.12
2018-01-13T03:34:03.209Z,9.06
2018-01-13T03:34:43.573Z,9.1
2018-01-13T03:35:23.984Z,9.08
2018-01-13T03:36:04.387Z,9.12
2018-01-13T03:36:44.775Z,9.06
2018-01-13T03:37:25.104Z,9.08
2018-01-13T03:38:05.584Z,9.1
2018-01-13T03:38:45.978Z,9.12
2018-01-13T03:39:26.352Z,9.08
2018-01-13T03:40:06.726Z,9.12
2018-01-13T03:40:47.091Z,8.97
2018-01-13T03:41:27.552Z,9.12
2018-01-13T03:42:07.912Z,8.98
2018-01-13T03:42:48.301Z,9.03
2018-01-13T03:43:28.764Z,9.04
2018-01-13T03:44:09.124Z,8.98
2018-01-13T03:44:49.556Z,8.91
2018-01-13T03:45:30.026Z,8.91
2018-01-13T03:46:10.354Z,8.93
2018-01-13T03:46:50.786Z,8.93
2018-01-13T03:47:31.185Z,8.96
2018-01-13T03:48:11.543Z,8.97
2018-01-13T03:48:51.978Z,8.91
2018-01-13T03:49:32.326Z,8.94
2018-01-13T03:50:12.739Z,8.96
2018-01-13T03:50:53.111Z,8.97
2018-01-13T03:51:33.504Z,8.96
2018-01-13T03:52:13.903Z,8.93
2018-01-13T03:52:54.280Z,8.89
2018-01-13T03:53:34.689Z,8.94
2018-01-13T03:54:15.107Z,8.94
2018-01-13T03:54:55.492Z,9.04
2018-01-13T03:55:35.874Z,8.89
2018-01-13T03:56:16.326Z,8.96
2018-01-13T03:56:56.714Z,8.98
2018-01-13T03:57:37.090Z,8.94
2018-01-13T03:58:17.420Z,8.96
2018-01-13T03:58:57.886Z,8.89
2018-01-13T03:59:38.323Z,8.94
2018-01-13T04:00:18.678Z,8.94
2018-01-13T04:00:59.044Z,8.97
2018-01-13T04:01:39.466Z,8.93
2018-01-13T04:02:19.856Z,8.88
2018-01-13T04:03:00.257Z,9.04
2018-01-13T04:03:40.680Z,9.12
2018-01-13T04:41:16.702Z,7.73
2018-01-13T04:42:08.491Z,7.67
2018-01-13T04:43:01.052Z,7.67
2018-01-13T04:43:54.079Z,7.6
2018-01-13T04:44:46.036Z,7.6
2018-01-13T04:45:38.641Z,7.6
2018-01-13T04:46:30.598Z,7.6
2018-01-13T04:47:22.362Z,7.62
2018-01-13T04:48:14.337Z,7.63
2018-01-13T04:48:57.321Z,7.66
2018-01-13T04:49:37.705Z,7.62
2018-01-13T04:50:18.099Z,7.66
2018-01-13T04:50:58.616Z,7.51
2018-01-13T04:51:38.871Z,7.7
2018-01-13T04:52:19.280Z,7.63
2018-01-13T04:52:59.674Z,7.57
2018-01-13T04:53:40.060Z,7.66
2018-01-13T04:54:20.494Z,7.74
2018-01-13T04:55:00.900Z,7.79
2018-01-13T04:55:42.040Z,7.82
2018-01-13T04:56:21.620Z,7.91
2018-01-13T04:57:02.093Z,8.06
2018-01-13T04:57:42.452Z,8.2
2018-01-13T04:58:22.836Z,8.14
2018-01-13T04:59:03.321Z,8.36
2018-01-13T04:59:43.711Z,8.4
2018-01-13T05:00:24.083Z,8.46
2018-01-13T05:01:04.421Z,8.52
2018-01-13T05:01:44.850Z,8.7
2018-01-13T05:02:25.236Z,8.76
2018-01-13T05:03:05.575Z,8.88
2018-01-13T05:03:46.028Z,8.94
2018-01-13T05:04:26.396Z,8.98
2018-01-13T05:05:06.831Z,9.01
2018-01-13T05:05:47.184Z,9.04
2018-01-13T05:06:27.676Z,9.19
2018-01-13T05:07:08.011Z,9.2
2018-01-13T05:07:48.439Z,9.08
2018-01-13T05:08:28.858Z,9.08
2018-01-13T05:09:09.221Z,9.13
2018-01-13T05:09:49.656Z,9.13
2018-01-13T05:10:30.072Z,9.16
2018-01-13T05:11:10.421Z,9.17
2018-01-13T05:11:50.833Z,9.15
2018-01-13T05:12:31.231Z,9.23
2018-01-13T05:13:11.659Z,9.35
2018-01-13T05:13:52.001Z,9.31
2018-01-13T05:14:32.479Z,9.34
2018-01-13T05:15:12.795Z,9.42
2018-01-13T05:15:53.274Z,9.44
2018-01-13T05:16:33.642Z,9.53
2018-01-13T05:17:14.021Z,9.62
2018-01-13T05:17:54.533Z,9.7
2018-01-13T05:18:34.806Z,9.67
2018-01-13T05:19:15.206Z,9.58
2018-01-13T05:19:55.733Z,9.52
2018-01-13T05:20:36.036Z,9.37
2018-01-13T05:21:16.481Z,9.19
2018-01-13T05:21:56.789Z,9.12
2018-01-13T05:22:37.183Z,9.17
2018-01-13T05:23:17.609Z,9.17
2018-01-13T05:23:57.975Z,9.19
2018-01-13T05:24:38.427Z,9.19
2018-01-13T05:25:18.769Z,9.32
2018-01-13T05:25:59.331Z,9.27
2018-01-13T05:26:39.786Z,9.34
2018-01-13T05:27:20.140Z,9.34
2018-01-13T05:28:00.566Z,9.24
2018-01-13T05:28:40.993Z,9.27
2018-01-13T05:29:21.453Z,9.32
2018-01-13T05:30:01.836Z,9.34
2018-01-13T05:30:42.219Z,9.27
2018-01-13T05:31:22.576Z,9.3
2018-01-13T05:32:02.939Z,9.19
2018-01-13T05:32:43.409Z,9.24
2018-01-13T05:33:23.819Z,9.23
2018-01-13T05:34:04.222Z,9.32
2018-01-13T05:34:44.519Z,9.22
2018-01-13T05:35:24.987Z,9.16
2018-01-13T05:36:05.300Z,9.12
2018-01-13T05:36:45.762Z,8.91
2018-01-13T05:37:26.140Z,8.93
2018-01-13T05:38:06.561Z,8.82
2018-01-13T05:38:46.911Z,8.68
2018-01-13T05:39:27.315Z,8.57
2018-01-13T05:40:07.748Z,8.57
2018-01-13T05:40:48.068Z,8.6
2018-01-13T05:41:28.461Z,8.52
2018-01-13T05:42:08.959Z,8.5
2018-01-13T05:42:49.852Z,8.55
2018-01-13T05:43:30.015Z,8.47
2018-01-13T05:44:10.481Z,8.5
2018-01-13T05:44:50.827Z,8.52
2018-01-13T05:45:31.179Z,8.31
2018-01-13T05:46:11.601Z,8.28
2018-01-13T05:46:52.019Z,8.29
2018-01-13T05:47:32.381Z,8.14
2018-01-13T05:48:12.901Z,8.12
2018-01-13T05:48:53.270Z,8.09
2018-01-13T05:49:33.738Z,7.92
2018-01-13T05:50:14.036Z,7.92
2018-01-13T05:50:54.519Z,7.86
2018-01-13T05:51:34.828Z,7.73
2018-01-13T05:52:15.243Z,7.66
2018-01-13T05:52:55.581Z,7.71
2018-01-13T05:53:36.039Z,7.74
2018-01-13T05:54:16.414Z,7.77
2018-01-13T05:54:56.732Z,7.77
2018-01-13T05:55:37.177Z,7.86
2018-01-13T05:56:17.628Z,7.74
2018-01-13T05:56:58.695Z,7.71
2018-01-13T05:57:39.147Z,7.74
2018-01-13T05:58:19.542Z,7.76
2018-01-13T05:58:59.951Z,7.58
2018-01-13T05:59:40.359Z,7.6
2018-01-13T06:00:20.759Z,7.57
2018-01-13T06:01:01.186Z,7.57
2018-01-13T06:01:41.594Z,7.45
2018-01-13T06:02:22.063Z,7.48
2018-01-13T06:03:02.440Z,7.51
2018-01-13T06:03:42.861Z,7.57
2018-01-13T06:04:23.273Z,7.55
2018-01-13T06:05:03.735Z,7.47
2018-01-13T06:05:44.122Z,7.62
2018-01-13T06:06:24.425Z,7.63
2018-01-13T06:07:04.852Z,7.6
2018-01-13T06:07:45.328Z,7.62
2018-01-13T06:08:25.752Z,7.76
2018-01-13T06:09:06.268Z,7.85
2018-01-13T06:09:46.648Z,7.89
2018-01-13T06:10:27.010Z,7.82
2018-01-13T06:11:07.412Z,7.73
2018-01-13T06:11:47.870Z,7.71
2018-01-13T06:12:28.166Z,7.81
2018-01-13T06:13:08.567Z,7.84
2018-01-13T06:13:48.984Z,7.95
2018-01-13T06:14:29.418Z,7.92
2018-01-13T06:15:09.713Z,8.17
2018-01-13T06:15:50.053Z,8.24
2018-01-13T06:16:30.499Z,8.4
2018-01-13T06:17:10.893Z,8.57
2018-01-13T06:17:51.291Z,8.49
2018-01-13T06:18:31.671Z,8.31
2018-01-13T06:19:12.016Z,8.28
2018-01-13T06:19:52.450Z,8.31
2018-01-13T06:20:32.884Z,8.22
2018-01-13T06:21:13.289Z,8.2
2018-01-13T06:21:53.858Z,8.06
2018-01-13T06:22:35.186Z,8.02
2018-01-13T06:23:15.547Z,7.89
2018-01-13T06:23:55.939Z,7.95
2018-01-13T06:24:36.289Z,7.92
2018-01-13T06:25:16.732Z,7.84
2018-01-13T06:25:57.233Z,7.82
2018-01-13T06:26:37.538Z,7.77
2018-01-13T06:27:17.968Z,7.94
2018-01-13T06:27:58.405Z,7.92
2018-01-13T06:28:38.764Z,7.94
2018-01-13T06:29:19.173Z,7.95
2018-01-13T06:29:59.474Z,7.94
2018-01-13T06:30:39.838Z,7.99
2018-01-13T06:31:20.270Z,8.03
2018-01-13T06:32:00.763Z,8.13
2018-01-13T06:32:41.115Z,8.2
2018-01-13T06:33:21.485Z,8.34
2018-01-13T06:34:01.859Z,8.32
2018-01-13T06:34:42.254Z,8.31
2018-01-13T06:35:22.683Z,8.4
2018-01-13T06:36:03.020Z,8.36
2018-01-13T06:36:43.510Z,8.46
2018-01-13T06:37:23.872Z,8.34
2018-01-13T06:38:04.436Z,8.32
2018-01-13T06:38:44.733Z,8.2
2018-01-13T06:39:25.086Z,8.17
2018-01-13T06:40:05.434Z,8.13
2018-01-13T06:40:45.847Z,8.09
2018-01-13T06:41:26.278Z,8.02
2018-01-13T06:42:06.600Z,8.03
2018-01-13T06:42:47.114Z,7.82
2018-01-13T06:43:27.576Z,7.82
2018-01-13T06:44:07.910Z,7.79
2018-01-13T06:44:48.315Z,7.81
2018-01-13T06:45:28.947Z,7.69
2018-01-13T06:46:10.273Z,7.7
2018-01-13T06:46:50.848Z,7.71
2018-01-13T06:47:31.348Z,7.63
2018-01-13T06:48:11.616Z,7.66
2018-01-13T06:48:52.019Z,7.67
2018-01-13T06:49:32.388Z,7.71
2018-01-13T06:50:12.757Z,7.82
2018-01-13T06:50:53.249Z,7.85
2018-01-13T06:51:33.631Z,7.92
2018-01-13T06:52:14.222Z,7.77
2018-01-13T06:52:54.582Z,7.74
2018-01-13T06:53:34.971Z,7.62
2018-01-13T06:54:15.518Z,7.66
2018-01-13T06:54:57.221Z,7.66
2018-01-13T06:55:37.792Z,7.6
2018-01-13T06:56:18.181Z,7.6
2018-01-13T06:56:58.818Z,7.54
2018-01-13T06:57:39.149Z,7.58
2018-01-13T06:58:19.559Z,7.71
2018-01-13T06:58:59.960Z,7.85
2018-01-13T06:59:40.355Z,7.92
2018-01-13T07:00:20.718Z,7.94
2018-01-13T07:01:01.026Z,8.04
2018-01-13T07:01:41.435Z,7.99
2018-01-13T07:02:21.917Z,7.92
2018-01-13T07:03:02.198Z,7.96
2018-01-13T07:03:42.739Z,7.91
2018-01-13T07:04:23.130Z,7.88
2018-01-13T07:05:03.492Z,7.94
2018-01-13T07:05:43.841Z,7.94
2018-01-13T07:06:24.273Z,7.81
2018-01-13T07:07:04.658Z,7.82
2018-01-13T07:07:45.058Z,7.76
2018-01-13T07:08:25.517Z,7.81
2018-01-13T07:09:05.916Z,7.79
2018-01-13T07:09:46.278Z,7.74
2018-01-13T07:10:26.675Z,7.69
2018-01-13T07:11:07.148Z,7.73
2018-01-13T07:11:47.479Z,7.74
2018-01-13T07:12:27.958Z,7.66
2018-01-13T07:13:08.351Z,7.74
2018-01-13T07:13:48.747Z,7.95
2018-01-13T07:14:29.198Z,7.94
2018-01-13T07:15:09.704Z,7.92
2018-01-13T07:15:50.161Z,7.95
2018-01-13T07:16:30.490Z,7.99
2018-01-13T07:17:10.905Z,7.81
2018-01-13T07:17:51.324Z,7.82
2018-01-13T07:18:31.687Z,7.81
2018-01-13T07:19:12.037Z,7.77
2018-01-13T07:19:52.420Z,7.74
2018-01-13T07:20:32.845Z,7.79
2018-01-13T07:21:13.263Z,7.67
2018-01-13T07:21:53.670Z,7.74
2018-01-13T07:22:34.035Z,7.82
2018-01-13T07:23:14.377Z,7.84
2018-01-13T07:23:54.917Z,7.86
2018-01-13T07:24:35.235Z,7.92
2018-01-13T07:25:15.662Z,7.92
2018-01-13T07:25:55.990Z,7.96
2018-01-13T07:26:36.510Z,7.94
2018-01-13T07:27:16.875Z,7.95
2018-01-13T07:27:57.314Z,7.84
2018-01-13T07:28:37.640Z,7.85
2018-01-13T07:29:18.054Z,7.84
2018-01-13T07:29:58.463Z,7.84
2018-01-13T07:30:39.107Z,7.81
2018-01-13T07:31:20.144Z,7.82
2018-01-13T07:32:00.446Z,7.7
2018-01-13T07:32:40.793Z,7.76
2018-01-13T07:33:21.255Z,7.79
2018-01-13T07:34:01.639Z,7.92
2018-01-13T07:34:41.967Z,7.92
2018-01-13T07:35:22.490Z,8.03
2018-01-13T07:36:02.769Z,7.99
2018-01-13T07:36:43.126Z,8
2018-01-13T07:37:23.518Z,7.94
2018-01-13T07:38:03.989Z,7.91
2018-01-13T07:38:44.285Z,7.96
2018-01-13T07:39:24.811Z,8.03
2018-01-13T07:40:05.139Z,8.09
2018-01-13T07:40:45.506Z,8.18
2018-01-13T07:41:25.928Z,8.12
2018-01-13T07:42:06.542Z,8.17
2018-01-13T07:42:46.964Z,8.18
2018-01-13T07:43:27.331Z,8.18
2018-01-13T07:44:07.728Z,8.17
2018-01-13T07:44:48.202Z,8.32
2018-01-13T07:45:28.598Z,8.25
2018-01-13T07:46:08.981Z,8.27
2018-01-13T07:46:49.401Z,8.34
2018-01-13T07:47:29.812Z,8.14
2018-01-13T07:48:10.221Z,8.2
2018-01-13T07:48:50.611Z,8.1
2018-01-13T07:49:31.586Z,8.03
2018-01-13T07:50:11.607Z,8
2018-01-13T07:50:51.954Z,7.92
2018-01-13T07:51:32.637Z,7.81
2018-01-13T07:52:13.081Z,7.79
2018-01-13T07:52:53.384Z,7.66
2018-01-13T07:53:33.810Z,7.58
2018-01-13T07:54:14.179Z,7.57
2018-01-13T07:54:54.646Z,7.57
2018-01-13T07:55:35.116Z,7.51
2018-01-13T07:56:15.473Z,7.55
2018-01-13T07:56:55.881Z,7.54
2018-01-13T07:57:36.200Z,7.6
2018-01-13T07:58:16.659Z,7.6
2018-01-13T07:58:57.039Z,7.52
2018-01-13T07:59:37.441Z,7.57
2018-01-13T08:00:17.795Z,7.6
2018-01-13T08:00:58.207Z,7.62
2018-01-13T08:01:38.596Z,7.58
2018-01-13T08:02:19.047Z,7.6
2018-01-13T08:02:59.485Z,7.45
2018-01-13T08:03:40.627Z,7.55
2018-01-13T08:04:20.864Z,7.62
2018-01-13T08:05:01.224Z,7.45
2018-01-13T08:05:41.634Z,7.57
2018-01-13T08:06:22.137Z,7.55
2018-01-13T08:07:02.459Z,7.57
2018-01-13T08:07:42.884Z,7.51
2018-01-13T08:08:23.305Z,7.57
2018-01-13T08:09:03.694Z,7.57
2018-01-13T08:09:44.632Z,7.51
2018-01-13T08:10:25.098Z,7.57
2018-01-13T08:11:05.503Z,7.52
2018-01-13T08:11:45.878Z,7.54
2018-01-13T08:12:26.251Z,7.47
2018-01-13T08:13:06.589Z,7.6
2018-01-13T08:13:47.210Z,7.6
2018-01-13T08:14:27.614Z,7.58
2018-01-13T08:15:08.037Z,7.63
2018-01-13T08:15:48.435Z,7.67
2018-01-13T08:16:28.826Z,7.62
2018-01-13T08:17:09.398Z,7.66
2018-01-13T08:17:49.671Z,7.69
2018-01-13T08:18:30.124Z,7.6
2018-01-13T08:19:10.524Z,7.55
2018-01-13T08:19:50.918Z,7.62
2018-01-13T08:20:31.301Z,7.6
2018-01-13T08:21:12.158Z,7.57
2018-01-13T08:21:52.451Z,7.6
2018-01-13T08:22:32.943Z,7.55
2018-01-13T08:23:13.408Z,7.58
2018-01-13T08:23:53.706Z,7.57
2018-01-13T08:24:34.404Z,7.41
2018-01-13T08:25:14.716Z,7.36
2018-01-13T08:25:55.303Z,7.39
2018-01-13T08:26:35.568Z,7.34
2018-01-13T08:27:16.136Z,7.32
2018-01-13T08:27:56.804Z,7.3
2018-01-13T08:28:37.190Z,7.37
2018-01-13T08:29:17.583Z,7.34
2018-01-13T08:29:58.056Z,7.39
2018-01-13T08:30:38.411Z,7.34
2018-01-13T08:31:18.993Z,7.34
2018-01-13T08:31:59.277Z,7.36
2018-01-13T08:32:39.731Z,7.32
2018-01-13T08:33:20.213Z,7.37
2018-01-13T08:34:00.849Z,7.3
2018-01-13T08:34:41.180Z,7.32
2018-01-13T08:35:21.798Z,7.29
2018-01-13T08:36:03.007Z,7.3
2018-01-13T08:36:43.621Z,7.18
2018-01-13T08:37:24.195Z,7.16
2018-01-13T08:38:04.589Z,7.14
2018-01-13T08:38:45.043Z,7.08
2018-01-13T08:39:25.662Z,7
2018-01-13T08:40:06.019Z,7.01
2018-01-13T08:40:46.627Z,7.01
2018-01-13T08:41:27.284Z,7.01
2018-01-13T08:42:07.950Z,7.05
2018-01-13T08:42:48.414Z,7
2018-01-13T08:43:28.883Z,7
2018-01-13T08:44:09.635Z,6.89
2018-01-13T08:44:49.915Z,6.94
2018-01-13T08:45:30.546Z,6.91
2018-01-13T08:46:12.502Z,6.87
2018-01-13T08:46:52.802Z,6.82
2018-01-13T08:47:33.457Z,6.83
2018-01-13T08:48:14.839Z,6.81
2018-01-13T08:49:10.801Z,6.9
2018-01-13T08:49:51.157Z,6.82
2018-01-13T08:50:32.426Z,6.9
2018-01-13T08:51:14.427Z,6.83
2018-01-13T08:51:55.779Z,6.83
2018-01-13T08:52:36.865Z,6.82
2018-01-13T08:53:17.270Z,6.83
2018-01-13T08:53:57.604Z,6.81
2018-01-13T08:54:38.100Z,6.89
2018-01-13T08:55:18.720Z,6.83
2018-01-13T08:55:59.092Z,6.87
2018-01-13T08:56:41.586Z,6.83
2018-01-13T08:57:21.386Z,6.78
2018-01-13T08:58:01.756Z,6.81
2018-01-13T08:58:42.294Z,6.83
2018-01-13T08:59:23.451Z,6.83
2018-01-13T09:00:03.511Z,6.78
2018-01-13T09:00:44.699Z,6.87
2018-01-13T09:01:25.106Z,6.82
2018-01-13T09:02:05.486Z,6.87
2018-01-13T09:02:45.882Z,6.76
2018-01-13T09:03:26.433Z,6.83
2018-01-13T09:04:06.841Z,6.82
2018-01-13T09:04:47.552Z,6.79
2018-01-13T09:05:28.453Z,6.81
2018-01-13T09:06:09.278Z,6.78
2018-01-13T09:06:49.888Z,6.81
2018-01-13T09:07:30.864Z,6.81
2018-01-13T09:08:11.314Z,6.76
2018-01-13T09:08:51.672Z,6.87
2018-01-13T09:09:32.087Z,6.87
2018-01-13T09:10:13.581Z,6.83
2018-01-13T09:10:53.837Z,6.89
2018-01-13T09:11:34.292Z,6.87
2018-01-13T09:12:15.215Z,6.86
2018-01-13T09:12:57.091Z,6.81
2018-01-13T09:13:37.897Z,6.79
2018-01-13T09:14:18.267Z,6.78
2018-01-13T09:14:58.709Z,6.75
2018-01-13T09:15:39.279Z,6.63
2018-01-13T09:16:19.884Z,6.65
2018-01-13T09:17:00.723Z,6.64
2018-01-13T09:17:41.340Z,6.71
2018-01-13T09:18:21.539Z,6.68
2018-01-13T09:19:02.323Z,6.72
2018-01-13T09:19:43.162Z,6.69
2018-01-13T09:20:24.069Z,6.69
2018-01-13T09:21:05.679Z,6.72
2018-01-13T09:21:45.343Z,6.73
2018-01-13T09:22:27.589Z,6.79
2018-01-13T09:23:08.066Z,6.86
2018-01-13T09:23:48.965Z,6.78
2018-01-13T09:24:29.404Z,6.78
2018-01-13T09:25:10.311Z,6.82
2018-01-13T09:25:51.590Z,6.73
2018-01-13T09:26:33.411Z,6.69
2018-01-13T09:27:15.823Z,6.69
2018-01-13T09:27:56.903Z,6.71
2018-01-13T09:28:36.795Z,6.65
2018-01-13T09:29:17.616Z,6.65
2018-01-13T09:29:58.193Z,6.68
2018-01-13T09:30:38.835Z,6.64
2018-01-13T09:31:20.697Z,6.68
2018-01-13T09:32:01.641Z,6.68
2018-01-13T09:32:42.122Z,6.65
2018-01-13T09:33:23.404Z,6.68
2018-01-13T09:34:03.801Z,6.71
2018-01-13T09:34:44.191Z,6.68
2018-01-13T09:35:27.503Z,6.72
2018-01-13T09:36:07.823Z,6.63
2018-01-13T09:36:48.289Z,6.78
2018-01-13T09:38:00.091Z,6.81
2018-01-13T09:38:40.696Z,6.91
2018-01-13T09:39:23.136Z,6.83
2018-01-13T09:40:03.801Z,6.83
2018-01-13T09:40:44.411Z,6.75
2018-01-13T09:41:29.356Z,6.64
2018-01-13T09:43:12.666Z,6.63
2018-01-13T09:43:53.101Z,6.64
2018-01-13T09:44:33.466Z,6.65
2018-01-13T09:45:14.411Z,6.63
2018-01-13T09:45:54.791Z,6.6
2018-01-13T09:46:35.190Z,6.63
2018-01-13T09:47:15.582Z,6.69
2018-01-13T09:47:56.039Z,6.55
2018-01-13T09:48:36.419Z,6.72
2018-01-13T09:49:16.805Z,6.72
2018-01-13T09:49:57.363Z,6.68
2018-01-13T09:50:37.852Z,6.64
2018-01-13T09:51:18.288Z,6.79
2018-01-13T09:51:58.677Z,6.83
2018-01-13T09:52:39.103Z,6.79
2018-01-13T09:53:19.506Z,6.68
2018-01-13T09:54:00.232Z,6.69
2018-01-13T09:54:40.664Z,6.68
2018-01-13T09:55:21.058Z,6.73
2018-01-13T09:56:01.536Z,6.68
2018-01-13T09:56:42.970Z,6.68
2018-01-13T09:57:23.390Z,6.63
2018-01-13T09:58:03.644Z,6.72